| time (UTC) | temp F | wind direction | speed MPH | gust MPH | rain 1hr in | rain 24hr in | rain mn in | humidity % | barometer mb |
| 20260902235021 | 61 | 281 | 2.0 | 10.0 | 0.00 | 0.11 | 0.11 | 84 | 1005.0 |
| 20260902234543 | 61 | 275 | 2.0 | 13.0 | 0.00 | 0.11 | 0.11 | 85 | 1004.9 |
| 20260902234022 | 60 | 228 | 3.0 | 13.0 | 0.00 | 0.11 | 0.11 | 86 | 1004.8 |
| 20260902233524 | 60 | 227 | 2.0 | 11.0 | 0.00 | 0.11 | 0.11 | 87 | 1004.7 |
| 20260902233049 | 60 | 271 | 1.0 | 6.0 | 0.00 | 0.11 | 0.11 | 87 | 1004.6 |
| 20260902232521 | 59 | 259 | 1.0 | 10.0 | 0.00 | 0.11 | 0.11 | 88 | 1004.5 |
| 20260902232016 | 59 | 275 | 1.0 | 10.0 | 0.00 | 0.11 | 0.11 | 88 | 1004.3 |
| 20260902231539 | 59 | 195 | 2.0 | 5.0 | 0.00 | 0.11 | 0.11 | 89 | 1004.3 |
| 20260902231018 | 59 | 74 | 1.0 | 5.0 | 0.00 | 0.11 | 0.11 | 89 | 1004.2 |
| 20260902230526 | 58 | 39 | 1.0 | 2.0 | 0.00 | 0.11 | 0.11 | 89 | 1004.2 |
| 20260902230041 | 58 | 0 | 0.0 | 2.0 | 0.00 | 0.11 | 0.11 | 89 | 1004.3 |
| 20260902225523 | 58 | 115 | 1.0 | 6.0 | 0.00 | 0.11 | 0.11 | 88 | 1004.2 |
| 20260902225021 | 58 | 150 | 1.0 | 6.0 | 0.00 | 0.11 | 0.11 | 88 | 1004.2 |
| 20260902224537 | 58 | 239 | 1.0 | 7.0 | 0.00 | 0.11 | 0.11 | 88 | 1004.1 |
| 20260902224020 | 58 | 167 | 2.0 | 7.0 | 0.00 | 0.11 | 0.11 | 88 | 1003.9 |
| 20260902223520 | 58 | 25 | 2.0 | 6.0 | 0.00 | 0.11 | 0.11 | 88 | 1003.9 |
| 20260902223041 | 58 | 10 | 2.0 | 4.0 | 0.00 | 0.11 | 0.11 | 89 | 1003.9 |
| 20260902222519 | 57 | 29 | 1.0 | 4.0 | 0.01 | 0.11 | 0.11 | 89 | 1003.7 |
| 20260902222018 | 57 | 75 | 1.0 | 4.0 | 0.01 | 0.11 | 0.11 | 89 | 1003.7 |
| 20260902221538 | 57 | 0 | 1.0 | 4.0 | 0.01 | 0.11 | 0.11 | 89 | 1003.7 |
| 20260902221021 | 57 | 0 | 1.0 | 2.0 | 0.02 | 0.11 | 0.11 | 89 | 1003.7 |
| 20260902220521 | 57 | 0 | 0.0 | 2.0 | 0.02 | 0.11 | 0.11 | 89 | 1003.8 |
| 20260902220044 | 57 | 30 | 0.0 | 2.0 | 0.02 | 0.11 | 0.11 | 89 | 1003.8 |
| 20260902215520 | 57 | 255 | 0.0 | 2.0 | 0.02 | 0.11 | 0.11 | 89 | 1003.8 |
| 20260902215017 | 57 | 0 | 0.0 | 2.0 | 0.03 | 0.11 | 0.11 | 88 | 1003.9 |
| 20260902214558 | 57 | 0 | 0.0 | 3.0 | 0.03 | 0.11 | 0.11 | 88 | 1003.9 |
| 20260902214018 | 57 | 0 | 0.0 | 3.0 | 0.04 | 0.11 | 0.11 | 88 | 1004.0 |
| 20260902213518 | 57 | 0 | 0.0 | 2.0 | 0.04 | 0.11 | 0.11 | 88 | 1004.1 |
| 20260902213040 | 57 | 100 | 1.0 | 2.0 | 0.04 | 0.11 | 0.11 | 88 | 1004.0 |
| 20260902212523 | 57 | 352 | 0.0 | 2.0 | 0.04 | 0.10 | 0.10 | 88 | 1004.1 |
| 20260902212018 | 57 | 340 | 0.0 | 2.0 | 0.05 | 0.10 | 0.10 | 88 | 1004.2 |
| 20260902211538 | 58 | 0 | 0.0 | 2.0 | 0.05 | 0.10 | 0.10 | 88 | 1004.2 |
| 20260902211022 | 58 | 9 | 0.0 | 2.0 | 0.05 | 0.09 | 0.09 | 88 | 1004.3 |
| 20260902210524 | 58 | 5 | 0.0 | 2.0 | 0.05 | 0.09 | 0.09 | 88 | 1004.2 |
| 20260902210036 | 58 | 44 | 0.0 | 2.0 | 0.05 | 0.09 | 0.09 | 88 | 1004.1 |
| 20260902205522 | 58 | 50 | 0.0 | 2.0 | 0.06 | 0.09 | 0.09 | 87 | 1004.3 |
| 20260902205020 | 58 | 173 | 0.0 | 7.0 | 0.06 | 0.08 | 0.08 | 87 | 1004.4 |
| 20260902204537 | 58 | 0 | 1.0 | 7.0 | 0.06 | 0.08 | 0.08 | 87 | 1004.5 |
| 20260902204020 | 59 | 0 | 0.0 | 2.0 | 0.06 | 0.07 | 0.07 | 87 | 1004.4 |
| 20260902203516 | 59 | 0 | 0.0 | 2.0 | 0.06 | 0.07 | 0.07 | 87 | 1004.5 |
| 20260902203040 | 59 | 0 | 0.0 | 2.0 | 0.06 | 0.07 | 0.07 | 87 | 1004.6 |
| 20260902202521 | 59 | 0 | 0.0 | 2.0 | 0.06 | 0.06 | 0.06 | 87 | 1004.6 |
| 20260902202021 | 59 | 0 | 0.0 | 4.0 | 0.05 | 0.05 | 0.05 | 86 | 1004.6 |
| 20260902201541 | 59 | 11 | 0.0 | 4.0 | 0.05 | 0.05 | 0.05 | 86 | 1004.6 |
| 20260902201020 | 60 | 84 | 1.0 | 4.0 | 0.04 | 0.04 | 0.04 | 86 | 1004.7 |
| 20260902200522 | 60 | 0 | 0.0 | 2.0 | 0.04 | 0.04 | 0.04 | 86 | 1004.7 |
| 20260902200039 | 60 | 93 | 1.0 | 2.0 | 0.03 | 0.03 | 0.03 | 85 | 1004.9 |
| 20260902195524 | 60 | 65 | 0.0 | 2.0 | 0.03 | 0.03 | 0.03 | 85 | 1004.8 |
| 20260902195022 | 61 | 84 | 0.0 | 2.0 | 0.02 | 0.02 | 0.02 | 85 | 1004.9 |
| 20260902194541 | 61 | 0 | 0.0 | 2.0 | 0.02 | 0.02 | 0.02 | 85 | 1004.9 |
| 20260902194020 | 61 | 0 | 0.0 | 2.0 | 0.01 | 0.01 | 0.01 | 84 | 1004.8 |
| 20260902193520 | 61 | 0 | 0.0 | 2.0 | 0.01 | 0.01 | 0.01 | 83 | 1004.7 |
| 20260902193038 | 62 | 55 | 0.0 | 3.0 | 0.01 | 0.01 | 0.01 | 83 | 1004.8 |
| 20260902192519 | 62 | 261 | 1.0 | 3.0 | 0.00 | 0.00 | 0.00 | 81 | 1004.8 |
| 20260902192021 | 62 | 321 | 0.0 | 10.0 | 0.00 | 0.00 | 0.00 | 81 | 1004.9 |
| 20260902191541 | 62 | 309 | 1.0 | 10.0 | 0.00 | 0.00 | 0.00 | 79 | 1005.0 |
| 20260902191021 | 63 | 148 | 1.0 | 4.0 | 0.00 | 0.00 | 0.00 | 81 | 1004.9 |
| 20260902190523 | 63 | 0 | 0.0 | 5.0 | 0.00 | 0.00 | 0.00 | 81 | 1005.0 |
| 20260902190039 | 63 | 0 | 1.0 | 5.0 | 0.00 | 0.00 | 0.00 | 80 | 1005.0 |
| 20260902185521 | 63 | 0 | 0.0 | 7.0 | 0.00 | 0.00 | 0.00 | 79 | 1005.0 |
| 20260902185024 | 63 | 327 | 2.0 | 10.0 | 0.00 | 0.00 | 0.00 | 77 | 1005.0 |
| 20260902184544 | 63 | 198 | 1.0 | 10.0 | 0.00 | 0.00 | 0.00 | 78 | 1005.1 |
| 20260902184023 | 64 | 157 | 0.0 | 8.0 | 0.00 | 0.00 | 0.00 | 78 | 1005.1 |
| 20260902183516 | 64 | 290 | 1.0 | 8.0 | 0.00 | 0.00 | 0.00 | 77 | 1005.0 |
| 20260902183044 | 64 | 235 | 3.0 | 7.0 | 0.00 | 0.00 | 0.00 | 77 | 1005.1 |
| 20260902182517 | 64 | 236 | 1.0 | 5.0 | 0.00 | 0.00 | 0.00 | 78 | 1005.2 |
| 20260902182019 | 63 | 234 | 0.0 | 7.0 | 0.00 | 0.00 | 0.00 | 79 | 1005.1 |
| 20260902181541 | 63 | 235 | 0.0 | 5.0 | 0.00 | 0.00 | 0.00 | 79 | 1005.2 |
| 20260902181022 | 63 | 254 | 0.0 | 7.0 | 0.00 | 0.00 | 0.00 | 79 | 1005.2 |
| 20260902180520 | 63 | 218 | 2.0 | 8.0 | 0.00 | 0.00 | 0.00 | 77 | 1005.4 |
| 20260902180039 | 64 | 225 | 1.0 | 8.0 | 0.00 | 0.00 | 0.00 | 77 | 1005.4 |
| 20260902175522 | 64 | 180 | 1.0 | 10.0 | 0.00 | 0.00 | 0.00 | 76 | 1005.3 |
| 20260902175021 | 64 | 226 | 3.0 | 11.0 | 0.00 | 0.00 | 0.00 | 75 | 1005.3 |
| 20260902174548 | 64 | 178 | 3.0 | 11.0 | 0.00 | 0.00 | 0.00 | 75 | 1005.3 |
| 20260902174020 | 64 | 222 | 2.0 | 6.0 | 0.00 | 0.00 | 0.00 | 75 | 1005.3 |
| 20260902173521 | 63 | 15 | 0.0 | 4.0 | 0.00 | 0.00 | 0.00 | 77 | 1005.3 |
| 20260902173106 | 63 | 229 | 1.0 | 4.0 | 0.00 | 0.00 | 0.00 | 77 | 1005.4 |
| 20260902172521 | 63 | 237 | 1.0 | 5.0 | 0.00 | 0.00 | 0.00 | 78 | 1005.4 |
| 20260902172021 | 62 | 0 | 1.0 | 5.0 | 0.00 | 0.00 | 0.00 | 79 | 1005.4 |
| 20260902171542 | 62 | 223 | 1.0 | 5.0 | 0.00 | 0.00 | 0.00 | 80 | 1005.4 |
| 20260902171025 | 61 | 0 | 0.0 | 3.0 | 0.00 | 0.00 | 0.00 | 82 | 1005.5 |
| 20260902170521 | 61 | 234 | 1.0 | 3.0 | 0.00 | 0.00 | 0.00 | 82 | 1005.6 |
| 20260902170038 | 61 | 212 | 0.0 | 2.0 | 0.00 | 0.00 | 0.00 | 83 | 1005.6 |
| 20260902165524 | 60 | 0 | 1.0 | 2.0 | 0.00 | 0.00 | 0.00 | 82 | 1005.6 |
| 20260902165024 | 60 | 234 | 1.0 | 3.0 | 0.00 | 0.00 | 0.00 | 84 | 1005.7 |
| 20260902164536 | 60 | 204 | 0.0 | 3.0 | 0.00 | 0.00 | 0.00 | 84 | 1005.7 |
| 20260902164017 | 59 | 258 | 0.0 | 2.0 | 0.00 | 0.00 | 0.00 | 85 | 1005.7 |
| 20260902163520 | 59 | 0 | 0.0 | 2.0 | 0.00 | 0.00 | 0.00 | 85 | 1005.7 |
| 20260902163038 | 59 | 0 | 0.0 | 2.0 | 0.00 | 0.00 | 0.00 | 86 | 1005.7 |
| 20260902162522 | 59 | 240 | 0.0 | 2.0 | 0.00 | 0.00 | 0.00 | 86 | 1005.7 |
| 20260902162021 | 59 | 0 | 0.0 | 2.0 | 0.00 | 0.00 | 0.00 | 86 | 1005.8 |
| 20260902161538 | 59 | 241 | 0.0 | 0.0 | 0.00 | 0.00 | 0.00 | 87 | 1005.9 |
| 20260902161021 | 59 | 0 | 0.0 | 0.0 | 0.00 | 0.00 | 0.00 | 87 | 1006.0 |
| 20260902160523 | 58 | 0 | 0.0 | 0.0 | 0.00 | 0.00 | 0.00 | 87 | 1006.0 |
| 20260902160052 | 58 | 0 | 0.0 | 0.0 | 0.00 | 0.00 | 0.00 | 86 | 1006.0 |
| 20260902155522 | 58 | 0 | 0.0 | 2.0 | 0.00 | 0.00 | 0.00 | 86 | 1006.0 |
| 20260902155021 | 58 | 0 | 0.0 | 2.0 | 0.00 | 0.00 | 0.00 | 86 | 1006.1 |
| 20260902154543 | 58 | 0 | 0.0 | 2.0 | 0.00 | 0.00 | 0.00 | 87 | 1006.1 |
| 20260902154024 | 58 | 0 | 0.0 | 2.0 | 0.00 | 0.00 | 0.00 | 87 | 1006.3 |
| 20260902153517 | 57 | 0 | 0.0 | 2.0 | 0.00 | 0.00 | 0.00 | 87 | 1006.4 |
| 20260902153041 | 57 | 0 | 0.0 | 2.0 | 0.00 | 0.00 | 0.00 | 88 | 1006.4 |
| 20260902152518 | 57 | 0 | 0.0 | 0.0 | 0.00 | 0.00 | 0.00 | 88 | 1006.5 |
| 20260902152022 | 57 | 0 | 0.0 | 2.0 | 0.00 | 0.00 | 0.00 | 88 | 1006.5 |
| 20260902151535 | 57 | 0 | 0.0 | 2.0 | 0.00 | 0.00 | 0.00 | 88 | 1006.6 |
| 20260902151020 | 57 | 0 | 0.0 | 2.0 | 0.00 | 0.00 | 0.00 | 88 | 1006.6 |
| 20260902150521 | 57 | 0 | 0.0 | 2.0 | 0.00 | 0.00 | 0.00 | 89 | 1006.7 |
| 20260902150037 | 57 | 0 | 0.0 | 0.0 | 0.00 | 0.00 | 0.00 | 89 | 1006.8 |
| 20260902145521 | 57 | 0 | 0.0 | 0.0 | 0.00 | 0.00 | 0.00 | 89 | 1006.8 |
| 20260902145026 | 56 | 0 | 0.0 | 0.0 | 0.00 | 0.00 | 0.00 | 89 | 1007.0 |
| 20260902144539 | 56 | 0 | 0.0 | 0.0 | 0.00 | 0.00 | 0.00 | 89 | 1007.0 |
| 20260902144018 | 56 | 0 | 0.0 | 2.0 | 0.00 | 0.00 | 0.00 | 89 | 1007.1 |
| 20260902143519 | 56 | 0 | 0.0 | 2.0 | 0.00 | 0.00 | 0.00 | 89 | 1007.0 |
| 20260902143039 | 56 | 0 | 0.0 | 0.0 | 0.00 | 0.00 | 0.00 | 89 | 1007.1 |
| 20260902142525 | 56 | 0 | 0.0 | 0.0 | 0.00 | 0.00 | 0.00 | 89 | 1007.2 |
| 20260902142018 | 56 | 0 | 0.0 | 0.0 | 0.00 | 0.00 | 0.00 | 89 | 1007.1 |
| 20260902141548 | 56 | 0 | 0.0 | 0.0 | 0.00 | 0.00 | 0.00 | 89 | 1007.1 |
| 20260902141020 | 56 | 0 | 0.0 | 0.0 | 0.00 | 0.00 | 0.00 | 89 | 1007.1 |
| 20260902140518 | 56 | 0 | 0.0 | 0.0 | 0.00 | 0.00 | 0.00 | 89 | 1007.2 |
| 20260902140040 | 56 | 0 | 0.0 | 0.0 | 0.00 | 0.00 | 0.00 | 89 | 1007.4 |
| 20260902135520 | 56 | 0 | 0.0 | 2.0 | 0.00 | 0.00 | 0.00 | 89 | 1007.4 |
| 20260902135020 | 56 | 0 | 0.0 | 2.0 | 0.00 | 0.00 | 0.00 | 89 | 1007.4 |
| 20260902134540 | 56 | 0 | 0.0 | 0.0 | 0.00 | 0.00 | 0.00 | 89 | 1007.4 |
| 20260902134023 | 56 | 0 | 0.0 | 0.0 | 0.00 | 0.00 | 0.00 | 89 | 1007.5 |
| 20260902133521 | 56 | 0 | 0.0 | 0.0 | 0.00 | 0.00 | 0.00 | 89 | 1007.6 |
| 20260902133047 | 56 | 0 | 0.0 | 0.0 | 0.00 | 0.00 | 0.00 | 89 | 1007.6 |
| 20260902132525 | 56 | 0 | 0.0 | 0.0 | 0.00 | 0.00 | 0.00 | 89 | 1007.6 |
| 20260902132020 | 56 | 0 | 0.0 | 0.0 | 0.00 | 0.00 | 0.00 | 89 | 1007.5 |
| 20260902131548 | 55 | 0 | 0.0 | 0.0 | 0.00 | 0.00 | 0.00 | 89 | 1007.6 |
| 20260902131025 | 55 | 0 | 0.0 | 0.0 | 0.00 | 0.00 | 0.00 | 89 | 1007.7 |
| 20260902130521 | 55 | 0 | 0.0 | 0.0 | 0.00 | 0.00 | 0.00 | 89 | 1007.7 |
| 20260902130038 | 56 | 0 | 0.0 | 0.0 | 0.00 | 0.00 | 0.00 | 89 | 1007.6 |
| 20260902125526 | 56 | 0 | 0.0 | 0.0 | 0.00 | 0.00 | 0.00 | 88 | 1007.8 |
| 20260902125019 | 56 | 0 | 0.0 | 0.0 | 0.00 | 0.00 | 0.00 | 88 | 1007.8 |
| 20260902124549 | 56 | 0 | 0.0 | 0.0 | 0.00 | 0.00 | 0.00 | 88 | 1007.8 |
| 20260902124023 | 56 | 0 | 0.0 | 0.0 | 0.00 | 0.00 | 0.00 | 89 | 1007.9 |
| 20260902123524 | 56 | 0 | 0.0 | 0.0 | 0.00 | 0.00 | 0.00 | 89 | 1007.9 |
| 20260902123057 | 56 | 0 | 0.0 | 0.0 | 0.00 | 0.00 | 0.00 | 89 | 1007.9 |
| 20260902122521 | 56 | 0 | 0.0 | 0.0 | 0.00 | 0.00 | 0.00 | 89 | 1008.0 |
| 20260902122020 | 56 | 0 | 0.0 | 0.0 | 0.00 | 0.00 | 0.00 | 89 | 1008.0 |
| 20260902121544 | 56 | 0 | 0.0 | 0.0 | 0.00 | 0.00 | 0.00 | 89 | 1008.1 |
| 20260902121020 | 56 | 0 | 0.0 | 0.0 | 0.00 | 0.00 | 0.00 | 89 | 1008.1 |
| 20260902120521 | 56 | 0 | 0.0 | 0.0 | 0.00 | 0.00 | 0.00 | 89 | 1008.2 |
| 20260902120040 | 56 | 0 | 0.0 | 0.0 | 0.00 | 0.00 | 0.00 | 89 | 1008.3 |
| 20260902115521 | 56 | 0 | 0.0 | 0.0 | 0.00 | 0.00 | 0.00 | 89 | 1008.4 |
| 20260902115022 | 56 | 0 | 0.0 | 0.0 | 0.00 | 0.00 | 0.00 | 89 | 1008.3 |
| 20260902114542 | 56 | 0 | 0.0 | 0.0 | 0.00 | 0.00 | 0.00 | 89 | 1008.2 |
| 20260902114017 | 56 | 0 | 0.0 | 0.0 | 0.00 | 0.00 | 0.00 | 88 | 1008.4 |
| 20260902113522 | 56 | 0 | 0.0 | 0.0 | 0.00 | 0.00 | 0.00 | 88 | 1008.4 |
| 20260902113035 | 56 | 0 | 0.0 | 0.0 | 0.00 | 0.00 | 0.00 | 88 | 1008.6 |
| 20260902112519 | 56 | 0 | 0.0 | 0.0 | 0.00 | 0.00 | 0.00 | 88 | 1008.5 |
| 20260902112019 | 56 | 0 | 0.0 | 0.0 | 0.00 | 0.00 | 0.00 | 88 | 1008.5 |
| 20260902111545 | 56 | 0 | 0.0 | 0.0 | 0.00 | 0.00 | 0.00 | 88 | 1008.6 |
| 20260902111020 | 56 | 0 | 0.0 | 0.0 | 0.00 | 0.00 | 0.00 | 89 | 1008.6 |
| 20260902110528 | 56 | 0 | 0.0 | 0.0 | 0.00 | 0.00 | 0.00 | 89 | 1008.6 |
| 20260902110041 | 56 | 0 | 0.0 | 0.0 | 0.00 | 0.00 | 0.00 | 89 | 1008.6 |
| 20260902105521 | 56 | 0 | 0.0 | 0.0 | 0.00 | 0.00 | 0.00 | 89 | 1008.7 |
| 20260902105020 | 56 | 0 | 0.0 | 0.0 | 0.00 | 0.00 | 0.00 | 89 | 1008.6 |
| 20260902104539 | 56 | 0 | 0.0 | 2.0 | 0.00 | 0.00 | 0.00 | 89 | 1008.8 |
| 20260902104020 | 56 | 0 | 0.0 | 2.0 | 0.00 | 0.00 | 0.00 | 88 | 1008.7 |
| 20260902103518 | 56 | 0 | 0.0 | 2.0 | 0.00 | 0.00 | 0.00 | 88 | 1008.8 |
| 20260902103039 | 56 | 0 | 0.0 | 2.0 | 0.00 | 0.00 | 0.00 | 88 | 1008.8 |
| 20260902102521 | 56 | 0 | 0.0 | 2.0 | 0.00 | 0.00 | 0.00 | 88 | 1008.8 |
| 20260902102021 | 56 | 0 | 0.0 | 0.0 | 0.00 | 0.00 | 0.00 | 88 | 1008.8 |
| 20260902101550 | 56 | 0 | 0.0 | 0.0 | 0.00 | 0.00 | 0.00 | 88 | 1008.7 |
| 20260902101021 | 56 | 0 | 0.0 | 0.0 | 0.00 | 0.00 | 0.00 | 88 | 1008.8 |
| 20260902100520 | 57 | 0 | 0.0 | 0.0 | 0.00 | 0.00 | 0.00 | 88 | 1008.7 |
| 20260902100037 | 57 | 0 | 0.0 | 0.0 | 0.00 | 0.00 | 0.00 | 88 | 1008.7 |
| 20260902095520 | 57 | 0 | 0.0 | 0.0 | 0.00 | 0.00 | 0.00 | 88 | 1008.8 |
| 20260902095024 | 57 | 0 | 0.0 | 0.0 | 0.00 | 0.00 | 0.00 | 88 | 1008.9 |
| 20260902094535 | 57 | 0 | 0.0 | 2.0 | 0.00 | 0.00 | 0.00 | 88 | 1008.9 |
| 20260902094026 | 57 | 0 | 0.0 | 2.0 | 0.00 | 0.00 | 0.00 | 88 | 1009.0 |
| 20260902093519 | 57 | 0 | 0.0 | 2.0 | 0.00 | 0.00 | 0.00 | 88 | 1009.1 |
| 20260902093036 | 57 | 0 | 0.0 | 2.0 | 0.00 | 0.00 | 0.00 | 88 | 1009.0 |
| 20260902092520 | 57 | 0 | 0.0 | 2.0 | 0.00 | 0.00 | 0.00 | 88 | 1009.0 |
| 20260902092022 | 57 | 0 | 0.0 | 2.0 | 0.00 | 0.00 | 0.00 | 88 | 1009.1 |
| 20260902091550 | 57 | 0 | 0.0 | 1.0 | 0.00 | 0.00 | 0.00 | 88 | 1009.3 |
| 20260902091024 | 57 | 0 | 0.0 | 1.0 | 0.00 | 0.00 | 0.00 | 88 | 1009.1 |
| 20260902090516 | 57 | 0 | 0.0 | 2.0 | 0.00 | 0.00 | 0.00 | 88 | 1009.2 |
| 20260902090041 | 57 | 0 | 0.0 | 2.0 | 0.00 | 0.00 | 0.00 | 88 | 1009.2 |
| 20260902085520 | 57 | 0 | 0.0 | 2.0 | 0.00 | 0.00 | 0.00 | 88 | 1009.4 |
| 20260902085020 | 57 | 248 | 0.0 | 2.0 | 0.00 | 0.00 | 0.00 | 88 | 1009.4 |
| 20260902084547 | 57 | 249 | 0.0 | 2.0 | 0.00 | 0.00 | 0.00 | 88 | 1009.5 |
| 20260902084021 | 57 | 0 | 0.0 | 2.0 | 0.00 | 0.00 | 0.00 | 88 | 1009.6 |
| 20260902083524 | 57 | 0 | 0.0 | 2.0 | 0.00 | 0.00 | 0.00 | 88 | 1009.6 |
| 20260902083042 | 57 | 0 | 0.0 | 2.0 | 0.00 | 0.00 | 0.00 | 88 | 1009.7 |
| 20260902082520 | 57 | 249 | 0.0 | 2.0 | 0.00 | 0.00 | 0.00 | 88 | 1009.7 |
| 20260902082020 | 57 | 238 | 0.0 | 2.0 | 0.00 | 0.00 | 0.00 | 88 | 1009.7 |
| 20260902081543 | 57 | 0 | 0.0 | 2.0 | 0.00 | 0.00 | 0.00 | 88 | 1009.7 |
| 20260902081023 | 57 | 0 | 0.0 | 0.0 | 0.00 | 0.00 | 0.00 | 88 | 1009.8 |
| 20260902080523 | 57 | 0 | 0.0 | 0.0 | 0.00 | 0.00 | 0.00 | 88 | 1009.9 |
| 20260902080040 | 57 | 0 | 0.0 | 0.0 | 0.00 | 0.00 | 0.00 | 88 | 1010.0 |
| 20260902075521 | 57 | 0 | 0.0 | 0.0 | 0.00 | 0.00 | 0.00 | 88 | 1010.1 |
| 20260902075020 | 57 | 0 | 0.0 | 0.0 | 0.00 | 0.00 | 0.00 | 88 | 1010.1 |
| 20260902074537 | 57 | 0 | 0.0 | 0.0 | 0.00 | 0.00 | 0.00 | 87 | 1010.1 |
| 20260902074021 | 57 | 0 | 0.0 | 0.0 | 0.00 | 0.00 | 0.00 | 87 | 1010.1 |
| 20260902073527 | 57 | 0 | 0.0 | 0.0 | 0.00 | 0.00 | 0.00 | 87 | 1010.1 |
| 20260902073046 | 57 | 0 | 0.0 | 0.0 | 0.00 | 0.00 | 0.00 | 87 | 1010.1 |
| 20260902072520 | 57 | 0 | 0.0 | 2.0 | 0.00 | 0.00 | 0.00 | 87 | 1010.1 |
| 20260902072018 | 57 | 0 | 0.0 | 2.0 | 0.00 | 0.00 | 0.00 | 87 | 1010.0 |
| 20260902071546 | 57 | 0 | 0.0 | 0.0 | 0.00 | 0.00 | 0.00 | 87 | 1010.0 |
| 20260902071021 | 57 | 0 | 0.0 | 0.0 | 0.00 | 0.00 | 0.00 | 87 | 1010.1 |
| 20260902070517 | 57 | 0 | 0.0 | 0.0 | 0.00 | 0.00 | 0.00 | 87 | 1010.1 |
| 20260902070043 | 57 | 0 | 0.0 | 0.0 | 0.00 | 0.00 | 0.00 | 87 | 1010.1 |
| 20260902065521 | 57 | 0 | 0.0 | 0.0 | 0.00 | 0.00 | 0.00 | 86 | 1010.1 |
| 20260902065021 | 57 | 0 | 0.0 | 0.0 | 0.00 | 0.00 | 0.00 | 86 | 1010.0 |
| 20260902064542 | 57 | 0 | 0.0 | 0.0 | 0.00 | 0.00 | 0.00 | 86 | 1010.0 |
| 20260902064020 | 57 | 0 | 0.0 | 0.0 | 0.00 | 0.00 | 0.00 | 86 | 1009.9 |
| 20260902063527 | 57 | 0 | 0.0 | 2.0 | 0.00 | 0.00 | 0.00 | 86 | 1009.8 |
| 20260902063037 | 57 | 0 | 0.0 | 2.0 | 0.00 | 0.00 | 0.00 | 85 | 1009.8 |
| 20260902062517 | 57 | 0 | 0.0 | 2.0 | 0.00 | 0.00 | 0.00 | 85 | 1009.9 |
| 20260902062016 | 57 | 0 | 0.0 | 2.0 | 0.00 | 0.00 | 0.00 | 85 | 1009.9 |
| 20260902061540 | 57 | 0 | 0.0 | 0.0 | 0.00 | 0.00 | 0.00 | 84 | 1009.9 |
| 20260902061025 | 58 | 0 | 0.0 | 0.0 | 0.00 | 0.00 | 0.00 | 84 | 1010.0 |
| 20260902060527 | 58 | 0 | 0.0 | 0.0 | 0.00 | 0.00 | 0.00 | 84 | 1010.0 |
| 20260902060040 | 58 | 0 | 0.0 | 0.0 | 0.00 | 0.00 | 0.00 | 84 | 1010.1 |
| 20260902055525 | 58 | 0 | 0.0 | 0.0 | 0.00 | 0.00 | 0.00 | 83 | 1010.0 |
| 20260902055021 | 59 | 0 | 0.0 | 0.0 | 0.00 | 0.00 | 0.00 | 83 | 1010.1 |
| 20260902054536 | 59 | 0 | 0.0 | 0.0 | 0.00 | 0.00 | 0.00 | 83 | 1010.1 |
| 20260902054021 | 59 | 0 | 0.0 | 0.0 | 0.00 | 0.00 | 0.00 | 83 | 1010.3 |
| 20260902053517 | 59 | 0 | 0.0 | 2.0 | 0.00 | 0.00 | 0.00 | 83 | 1010.3 |
| 20260902053040 | 59 | 0 | 0.0 | 2.0 | 0.00 | 0.00 | 0.00 | 83 | 1010.4 |
| 20260902052521 | 59 | 0 | 0.0 | 0.0 | 0.00 | 0.00 | 0.00 | 82 | 1010.5 |
| 20260902052021 | 59 | 0 | 0.0 | 2.0 | 0.00 | 0.00 | 0.00 | 82 | 1010.4 |
| 20260902051535 | 60 | 0 | 0.0 | 2.0 | 0.00 | 0.00 | 0.00 | 82 | 1010.4 |
| 20260902051018 | 60 | 0 | 0.0 | 2.0 | 0.00 | 0.00 | 0.00 | 83 | 1010.5 |
| 20260902050519 | 60 | 0 | 0.0 | 2.0 | 0.00 | 0.00 | 0.00 | 83 | 1010.5 |
| 20260902050040 | 60 | 0 | 0.0 | 2.0 | 0.00 | 0.00 | 0.00 | 83 | 1010.6 |
| 20260902045525 | 60 | 249 | 1.0 | 2.0 | 0.00 | 0.00 | 0.00 | 83 | 1010.7 |
| 20260902045020 | 59 | 0 | 0.0 | 0.0 | 0.00 | 0.00 | 0.00 | 82 | 1010.7 |
| 20260902044539 | 59 | 0 | 0.0 | 0.0 | 0.00 | 0.00 | 0.00 | 82 | 1010.7 |
| 20260902044020 | 59 | 0 | 0.0 | 0.0 | 0.00 | 0.00 | 0.00 | 82 | 1010.6 |
| 20260902043520 | 60 | 0 | 0.0 | 0.0 | 0.00 | 0.00 | 0.00 | 82 | 1010.5 |
| 20260902043042 | 60 | 0 | 0.0 | 0.0 | 0.00 | 0.00 | 0.00 | 82 | 1010.5 |
| 20260902042520 | 60 | 0 | 0.0 | 0.0 | 0.00 | 0.00 | 0.00 | 81 | 1010.5 |
| 20260902042016 | 60 | 0 | 0.0 | 0.0 | 0.00 | 0.00 | 0.00 | 81 | 1010.6 |
| 20260902041548 | 60 | 0 | 0.0 | 0.0 | 0.00 | 0.00 | 0.00 | 81 | 1010.6 |
| 20260902041019 | 60 | 0 | 0.0 | 0.0 | 0.00 | 0.00 | 0.00 | 81 | 1010.7 |
| 20260902040522 | 60 | 0 | 0.0 | 0.0 | 0.00 | 0.00 | 0.00 | 80 | 1010.6 |
| 20260902040039 | 60 | 0 | 0.0 | 0.0 | 0.00 | 0.00 | 0.00 | 80 | 1010.5 |
| 20260902035528 | 61 | 0 | 0.0 | 0.0 | 0.00 | 0.00 | 0.00 | 80 | 1010.4 |
| 20260902035020 | 61 | 0 | 0.0 | 2.0 | 0.00 | 0.00 | 0.00 | 80 | 1010.4 |
| 20260902034538 | 61 | 0 | 0.0 | 2.0 | 0.00 | 0.00 | 0.00 | 80 | 1010.4 |
| 20260902034020 | 61 | 305 | 0.0 | 1.0 | 0.00 | 0.00 | 0.00 | 79 | 1010.3 |
| 20260902033521 | 61 | 0 | 0.0 | 0.0 | 0.00 | 0.00 | 0.00 | 80 | 1010.3 |
| 20260902033038 | 61 | 0 | 0.0 | 0.0 | 0.00 | 0.00 | 0.00 | 80 | 1010.3 |
| 20260902032519 | 62 | 0 | 0.0 | 0.0 | 0.00 | 0.00 | 0.00 | 79 | 1010.3 |
| 20260902032027 | 62 | 0 | 0.0 | 0.0 | 0.00 | 0.00 | 0.00 | 79 | 1010.4 |
| 20260902031539 | 62 | 0 | 0.0 | 0.0 | 0.00 | 0.00 | 0.00 | 79 | 1010.3 |
| 20260902031021 | 62 | 0 | 0.0 | 2.0 | 0.00 | 0.00 | 0.00 | 79 | 1010.3 |
| 20260902030522 | 62 | 0 | 0.0 | 3.0 | 0.00 | 0.00 | 0.00 | 79 | 1010.3 |
| 20260902030037 | 63 | 238 | 0.0 | 3.0 | 0.00 | 0.00 | 0.00 | 79 | 1010.3 |
| 20260902025521 | 63 | 221 | 0.0 | 4.0 | 0.00 | 0.00 | 0.00 | 78 | 1010.3 |
| 20260902025021 | 63 | 0 | 0.0 | 4.0 | 0.00 | 0.00 | 0.00 | 78 | 1010.2 |
| 20260902024540 | 63 | 241 | 0.0 | 3.0 | 0.00 | 0.00 | 0.00 | 78 | 1010.3 |
| 20260902024017 | 63 | 228 | 1.0 | 4.0 | 0.00 | 0.00 | 0.00 | 78 | 1010.3 |
| 20260902023520 | 63 | 197 | 1.0 | 4.0 | 0.00 | 0.00 | 0.00 | 78 | 1010.3 |
| 20260902023038 | 63 | 250 | 1.0 | 3.0 | 0.00 | 0.00 | 0.00 | 78 | 1010.3 |
| 20260902022524 | 63 | 275 | 1.0 | 3.0 | 0.00 | 0.00 | 0.00 | 78 | 1010.2 |
| 20260902022019 | 63 | 228 | 1.0 | 3.0 | 0.00 | 0.00 | 0.00 | 78 | 1010.3 |
| 20260902021535 | 63 | 0 | 0.0 | 3.0 | 0.00 | 0.00 | 0.00 | 78 | 1010.3 |
| 20260902021023 | 64 | 115 | 1.0 | 3.0 | 0.00 | 0.00 | 0.00 | 77 | 1010.4 |
| 20260902020523 | 64 | 234 | 1.0 | 5.0 | 0.00 | 0.00 | 0.00 | 77 | 1010.4 |
| 20260902020049 | 64 | 235 | 0.0 | 5.0 | 0.00 | 0.00 | 0.00 | 77 | 1010.4 |
| 20260902015518 | 64 | 252 | 1.0 | 6.0 | 0.00 | 0.00 | 0.00 | 77 | 1010.4 |
| 20260902015021 | 64 | 234 | 2.0 | 6.0 | 0.00 | 0.00 | 0.00 | 77 | 1010.5 |
| 20260902014537 | 64 | 228 | 1.0 | 4.0 | 0.00 | 0.00 | 0.00 | 77 | 1010.6 |
| 20260902014021 | 64 | 234 | 1.0 | 4.0 | 0.00 | 0.00 | 0.00 | 76 | 1010.4 |
| 20260902013523 | 64 | 0 | 0.0 | 3.0 | 0.00 | 0.00 | 0.00 | 77 | 1010.3 |
| 20260902013039 | 64 | 0 | 0.0 | 2.0 | 0.00 | 0.00 | 0.00 | 77 | 1010.3 |
| 20260902012518 | 64 | 243 | 0.0 | 4.0 | 0.00 | 0.00 | 0.00 | 77 | 1010.2 |
| 20260902012018 | 64 | 235 | 0.0 | 4.0 | 0.00 | 0.00 | 0.00 | 77 | 1010.3 |
| 20260902011536 | 64 | 237 | 0.0 | 5.0 | 0.00 | 0.00 | 0.00 | 77 | 1010.2 |
| 20260902011021 | 64 | 266 | 1.0 | 5.0 | 0.00 | 0.00 | 0.00 | 76 | 1010.2 |
| 20260902010521 | 64 | 235 | 1.0 | 5.0 | 0.00 | 0.00 | 0.00 | 77 | 1010.2 |
| 20260902010037 | 64 | 241 | 1.0 | 4.0 | 0.00 | 0.00 | 0.00 | 76 | 1010.0 |
| 20260902005523 | 65 | 228 | 1.0 | 3.0 | 0.00 | 0.00 | 0.00 | 76 | 1010.1 |
| 20260902005021 | 65 | 0 | 0.0 | 4.0 | 0.00 | 0.00 | 0.00 | 76 | 1010.1 |
| 20260902004538 | 65 | 240 | 1.0 | 4.0 | 0.00 | 0.00 | 0.00 | 76 | 1010.1 |
| 20260902004029 | 65 | 192 | 1.0 | 11.0 | 0.00 | 0.00 | 0.00 | 76 | 1010.2 |
| 20260902003517 | 65 | 290 | 0.0 | 11.0 | 0.00 | 0.00 | 0.00 | 75 | 1010.3 |
| 20260902003038 | 66 | 211 | 2.0 | 9.0 | 0.00 | 0.00 | 0.00 | 74 | 1010.3 |
| 20260902002520 | 66 | 168 | 1.0 | 6.0 | 0.00 | 0.00 | 0.00 | 74 | 1010.3 |
| 20260902002022 | 67 | 253 | 1.0 | 2.0 | 0.00 | 0.00 | 0.00 | 73 | 1010.1 |
| 20260902001540 | 67 | 215 | 0.0 | 2.0 | 0.00 | 0.00 | 0.00 | 73 | 1010.1 |
| 20260902001020 | 67 | 0 | 1.0 | 3.0 | 0.00 | 0.00 | 0.00 | 73 | 1010.1 |
| 20260902000517 | 67 | 223 | 1.0 | 3.0 | 0.00 | 0.00 | 0.00 | 73 | 1010.1 |
| 20260902000041 | 67 | 218 | 1.0 | 3.0 | 0.00 | 0.00 | 0.00 | 72 | 1010.1 |
| 20260901235522 | 67 | 345 | 0.0 | 5.0 | 0.00 | 0.00 | 0.00 | 73 | 1010.0 |